Ree Heights, South Dakota
Current Conditions -  °F | °C
As of 7:55 PM on Sunday 21 Dec 2014 (Local Time) from KHON Reporting Station
Haze Haze  
Wind Chill: 26°   Ceiling: 1000
Heat Index: 35°   Visibility: 6mi
Dew Point: 32°   Wind: 14mph
Humidity: 89%   Direction: 150°SSE
Pressure: 29.47"   Gusts: NA
Location:  44.52°N, 99.2°W
Report Text: KHON 220155Z AUTO 15012KT 6SM BR BKN010 02/00 A2947 RMK AO2 SLP992 T00170000
Loading
Personal Weather Stations






























Interactive Weather Map New forecast layout! Learn more

10-Day Weather Forecast

Advertisements
Track Severe Weather on mobile